createdAt,value
2022-12-29T00:01:39.862Z,0.40
2022-12-29T00:04:10.043Z,0.50
2022-12-29T00:06:41.180Z,0.40
2022-12-29T00:09:08.622Z,0.40
2022-12-29T00:11:35.307Z,0.30
2022-12-29T00:14:25.899Z,0.60
2022-12-29T00:16:52.934Z,0.40
2022-12-29T00:19:38.351Z,0.43
2022-12-29T00:22:23.733Z,0.53
2022-12-29T00:25:02.472Z,0.30
2022-12-29T00:27:49.750Z,0.83
2022-12-29T00:30:36.651Z,0.47
2022-12-29T00:33:29.083Z,0.40
2022-12-29T00:35:58.437Z,0.37
2022-12-29T00:38:43.837Z,0.30
2022-12-29T00:41:29.304Z,0.23
2022-12-29T00:44:09.026Z,0.47
2022-12-29T00:46:36.170Z,0.30
2022-12-29T00:49:21.354Z,0.30
2022-12-29T00:51:48.544Z,0.30
2022-12-29T00:54:15.575Z,0.50
2022-12-29T00:56:42.303Z,0.40
2022-12-29T00:59:09.861Z,0.33
2022-12-29T01:01:37.635Z,0.40
2022-12-29T01:04:05.390Z,0.40
2022-12-29T01:06:33.133Z,1.03
2022-12-29T01:09:18.749Z,0.40
2022-12-29T01:11:45.399Z,0.73
2022-12-29T01:14:12.032Z,0.40
2022-12-29T01:16:38.774Z,0.70
2022-12-29T01:19:05.442Z,0.73
2022-12-29T01:21:32.238Z,0.80
2022-12-29T01:23:58.918Z,0.83
2022-12-29T01:26:25.560Z,0.60
2022-12-29T01:28:52.377Z,0.50
2022-12-29T01:31:19.168Z,1.03
2022-12-29T01:33:45.838Z,0.70
2022-12-29T01:36:14.029Z,0.50
2022-12-29T01:38:41.199Z,1.03
2022-12-29T01:41:08.661Z,1.03
2022-12-29T01:43:47.438Z,1.13
2022-12-29T01:46:17.474Z,1.00
2022-12-29T01:48:47.345Z,3.83
2022-12-29T01:51:13.987Z,2.23
2022-12-29T01:53:40.795Z,0.97
2022-12-29T01:56:08.747Z,2.13
2022-12-29T01:58:39.392Z,1.03
2022-12-29T02:01:06.229Z,1.23
2022-12-29T02:03:36.826Z,0.63
2022-12-29T02:06:07.209Z,1.20
2022-12-29T02:08:34.083Z,1.27
2022-12-29T02:11:01.726Z,1.50
2022-12-29T02:13:29.074Z,1.17
2022-12-29T02:16:15.585Z,0.63
2022-12-29T02:18:42.902Z,1.13
2022-12-29T02:21:23.664Z,2.70
2022-12-29T02:23:51.109Z,0.80
2022-12-29T02:26:24.235Z,0.70
2022-12-29T02:28:50.871Z,1.77
2022-12-29T02:31:32.852Z,0.50
2022-12-29T02:34:19.765Z,1.77
2022-12-29T02:36:58.882Z,1.53
2022-12-29T02:39:44.163Z,0.53
2022-12-29T02:42:11.929Z,0.87
2022-12-29T02:44:47.409Z,0.60
2022-12-29T02:47:21.829Z,0.63
2022-12-29T02:49:55.131Z,0.60
2022-12-29T02:52:29.241Z,0.60
2022-12-29T02:54:56.013Z,0.83
2022-12-29T02:57:22.631Z,1.80
2022-12-29T03:00:01.039Z,1.83
2022-12-29T03:02:43.274Z,2.83
2022-12-29T03:05:13.303Z,0.60
2022-12-29T03:07:44.089Z,0.40
2022-12-29T03:10:29.603Z,0.40
2022-12-29T03:13:30.932Z,0.53
2022-12-29T03:16:05.584Z,1.50
2022-12-29T03:18:40.411Z,1.17
2022-12-29T03:21:47.285Z,0.47
2022-12-29T03:24:18.714Z,0.60
2022-12-29T03:26:48.230Z,1.00
2022-12-29T03:29:17.141Z,0.93
2022-12-29T03:31:46.739Z,0.60
2022-12-29T03:34:15.228Z,0.50
2022-12-29T03:37:02.452Z,0.90
2022-12-29T03:39:29.872Z,0.57
2022-12-29T03:42:00.684Z,1.77
2022-12-29T03:44:37.631Z,1.77
2022-12-29T03:47:06.233Z,0.60
2022-12-29T03:49:32.923Z,2.90
2022-12-29T03:51:59.842Z,2.00
2022-12-29T03:54:27.825Z,3.57
2022-12-29T03:56:54.935Z,1.10
2022-12-29T03:59:33.097Z,1.03
2022-12-29T04:02:01.155Z,0.80
2022-12-29T04:04:28.560Z,1.50
2022-12-29T04:06:55.267Z,0.90
2022-12-29T04:09:21.909Z,0.73
2022-12-29T04:11:49.955Z,2.07
2022-12-29T04:14:17.185Z,0.70
2022-12-29T04:16:45.467Z,1.07
2022-12-29T04:19:12.409Z,0.60
2022-12-29T04:21:39.068Z,0.80
2022-12-29T04:24:07.591Z,0.83
2022-12-29T04:26:38.771Z,1.70
2022-12-29T04:29:25.577Z,0.90
2022-12-29T04:32:04.777Z,1.87
2022-12-29T04:34:33.529Z,0.63
2022-12-29T04:37:00.469Z,2.90
2022-12-29T04:39:28.643Z,1.70
2022-12-29T04:41:55.820Z,0.70
2022-12-29T04:44:22.515Z,0.60
2022-12-29T04:47:13.556Z,1.50
2022-12-29T04:49:44.871Z,0.80
2022-12-29T04:52:38.095Z,1.60
2022-12-29T04:55:07.557Z,0.80
2022-12-29T04:57:34.539Z,0.80
2022-12-29T05:00:02.475Z,0.90
2022-12-29T05:02:29.858Z,1.53
2022-12-29T05:04:57.515Z,1.20
2022-12-29T05:07:26.127Z,1.60
2022-12-29T05:09:54.240Z,1.80
2022-12-29T05:12:20.982Z,0.80
2022-12-29T05:14:58.421Z,1.93
2022-12-29T05:17:25.051Z,0.80
2022-12-29T05:19:51.689Z,1.50
2022-12-29T05:22:19.242Z,2.03
2022-12-29T05:24:46.188Z,0.93
2022-12-29T05:27:12.945Z,1.10
2022-12-29T05:30:02.670Z,1.90
2022-12-29T05:32:29.415Z,1.30
2022-12-29T05:34:56.992Z,0.97
2022-12-29T05:37:24.427Z,0.53
2022-12-29T05:39:51.161Z,1.70
2022-12-29T05:42:18.523Z,1.70
2022-12-29T05:44:54.980Z,2.87
2022-12-29T05:47:37.202Z,1.47
2022-12-29T05:50:24.056Z,0.93
2022-12-29T05:53:08.503Z,0.80
2022-12-29T05:55:37.213Z,2.50
2022-12-29T05:58:04.103Z,1.20
2022-12-29T06:00:30.760Z,3.17
2022-12-29T06:02:58.883Z,0.97
2022-12-29T06:05:26.744Z,2.47
2022-12-29T06:07:53.453Z,3.00
2022-12-29T06:10:20.642Z,3.57
2022-12-29T06:12:53.317Z,1.90
2022-12-29T06:15:20.609Z,3.13
2022-12-29T06:17:49.907Z,4.13
2022-12-29T06:20:17.757Z,2.30
2022-12-29T06:22:44.618Z,2.80
2022-12-29T06:25:11.488Z,2.53
2022-12-29T06:27:39.051Z,2.73
2022-12-29T06:30:05.858Z,3.27
2022-12-29T06:32:32.581Z,2.17
2022-12-29T06:35:05.301Z,3.37
2022-12-29T06:37:32.063Z,2.90
2022-12-29T06:39:58.796Z,3.67
2022-12-29T06:42:31.545Z,1.20
2022-12-29T06:45:30.183Z,4.40
2022-12-29T06:47:57.216Z,2.93
2022-12-29T06:50:23.778Z,8.10
2022-12-29T06:52:50.364Z,5.90
2022-12-29T06:55:17.500Z,2.00
2022-12-29T06:57:44.264Z,3.17
2022-12-29T07:00:11.089Z,2.23
2022-12-29T07:02:37.775Z,2.63
2022-12-29T07:05:04.545Z,3.43
2022-12-29T07:07:31.348Z,1.97
2022-12-29T07:09:57.973Z,2.30
2022-12-29T07:12:24.609Z,5.43
2022-12-29T07:14:51.151Z,2.97
2022-12-29T07:17:17.751Z,1.53
2022-12-29T07:19:45.297Z,2.53
2022-12-29T07:22:11.854Z,1.87
2022-12-29T07:24:38.613Z,5.17
2022-12-29T07:27:05.553Z,2.53
2022-12-29T07:29:32.230Z,3.13
2022-12-29T07:31:59.043Z,2.03
2022-12-29T07:34:25.629Z,1.43
2022-12-29T07:36:52.226Z,3.30
2022-12-29T07:39:19.458Z,2.63
2022-12-29T07:41:46.068Z,4.13
2022-12-29T07:44:17.608Z,2.50
2022-12-29T07:46:57.769Z,1.67
2022-12-29T07:49:25.506Z,3.17
2022-12-29T07:51:52.186Z,3.17
2022-12-29T07:54:24.122Z,4.50
2022-12-29T07:56:51.049Z,5.67
2022-12-29T07:59:17.685Z,1.43
2022-12-29T08:01:44.925Z,2.77
2022-12-29T08:04:11.838Z,4.77
2022-12-29T08:06:39.339Z,3.60
2022-12-29T08:09:14.820Z,2.90
2022-12-29T08:11:45.345Z,3.53
2022-12-29T08:14:11.977Z,2.33
2022-12-29T08:16:39.158Z,3.67
2022-12-29T08:19:06.212Z,4.53
2022-12-29T08:21:32.908Z,3.03
2022-12-29T08:24:00.423Z,4.73
2022-12-29T08:26:27.493Z,2.90
2022-12-29T08:28:54.778Z,2.37
2022-12-29T08:31:21.583Z,3.13
2022-12-29T08:33:48.524Z,4.43
2022-12-29T08:36:15.461Z,3.77
2022-12-29T08:38:42.462Z,6.00
2022-12-29T08:41:09.665Z,3.40
2022-12-29T08:43:36.728Z,4.03
2022-12-29T08:46:03.547Z,7.63
2022-12-29T08:48:30.188Z,5.53
2022-12-29T08:50:56.838Z,5.33
2022-12-29T08:53:23.517Z,4.27
2022-12-29T08:56:02.166Z,4.53
2022-12-29T08:58:33.771Z,2.93
2022-12-29T09:01:00.720Z,5.20
2022-12-29T09:06:15.113Z,4.50
2022-12-29T09:08:41.869Z,5.60
2022-12-29T09:11:13.639Z,2.80
2022-12-29T09:13:40.291Z,7.43
2022-12-29T09:16:07.410Z,5.47
2022-12-29T09:18:34.283Z,4.90
2022-12-29T09:21:02.525Z,4.20
2022-12-29T09:23:29.378Z,2.10
2022-12-29T09:25:56.123Z,4.60
2022-12-29T09:28:23.273Z,9.90
2022-12-29T09:30:51.419Z,5.73
2022-12-29T09:33:18.393Z,2.53
2022-12-29T09:35:45.791Z,4.63
2022-12-29T09:38:12.524Z,4.23
2022-12-29T09:40:39.510Z,6.87
2022-12-29T09:43:13.522Z,9.23
2022-12-29T09:45:44.913Z,3.80
2022-12-29T09:48:21.206Z,3.50
2022-12-29T09:50:56.770Z,5.40
2022-12-29T09:53:32.811Z,5.43
2022-12-29T09:56:01.524Z,8.83
2022-12-29T09:58:28.182Z,4.03
2022-12-29T10:00:55.648Z,5.03
2022-12-29T10:03:24.772Z,3.40
2022-12-29T10:06:18.386Z,2.23
2022-12-29T10:08:54.555Z,4.00
2022-12-29T10:11:36.490Z,3.73
2022-12-29T10:14:14.083Z,7.63
2022-12-29T10:17:03.798Z,4.80
2022-12-29T10:19:49.509Z,4.73
2022-12-29T10:22:31.462Z,3.07
2022-12-29T10:24:59.194Z,7.10
2022-12-29T10:27:25.811Z,6.03
2022-12-29T10:29:55.122Z,2.80
2022-12-29T10:32:28.551Z,3.67
2022-12-29T10:34:58.000Z,4.67
2022-12-29T10:37:54.547Z,5.23
2022-12-29T10:40:26.255Z,4.80
2022-12-29T10:42:56.554Z,3.33
2022-12-29T10:45:24.929Z,4.80
2022-12-29T10:48:20.348Z,4.30
2022-12-29T10:50:47.120Z,5.17
2022-12-29T10:53:25.873Z,4.53
2022-12-29T10:55:52.613Z,3.80
2022-12-29T10:58:20.075Z,7.40
2022-12-29T11:00:54.745Z,3.47
2022-12-29T11:03:35.483Z,6.70
2022-12-29T11:06:02.144Z,7.63
2022-12-29T11:08:34.488Z,7.33
2022-12-29T11:11:02.880Z,3.77
2022-12-29T11:13:36.500Z,4.37
2022-12-29T11:16:05.521Z,4.97
2022-12-29T11:18:38.866Z,5.47
2022-12-29T11:21:07.269Z,5.20
2022-12-29T11:23:38.353Z,6.10
2022-12-29T11:26:11.481Z,3.77
2022-12-29T11:28:38.957Z,8.23
2022-12-29T11:31:07.521Z,5.60
2022-12-29T11:33:35.740Z,6.47
2022-12-29T11:36:06.891Z,5.67
2022-12-29T11:38:38.353Z,9.03
2022-12-29T11:41:05.889Z,4.50
2022-12-29T11:43:38.212Z,4.10
2022-12-29T11:46:05.292Z,5.17
2022-12-29T11:48:40.466Z,7.40
2022-12-29T11:51:08.166Z,6.10
2022-12-29T11:53:45.170Z,4.57
2022-12-29T11:56:19.523Z,5.57
2022-12-29T11:58:46.173Z,6.40
2022-12-29T12:01:48.172Z,3.53
2022-12-29T12:04:19.602Z,6.40
2022-12-29T12:07:06.529Z,3.70
2022-12-29T12:09:36.793Z,4.23
2022-12-29T12:12:04.850Z,5.17
2022-12-29T12:14:42.129Z,9.23
2022-12-29T12:18:02.544Z,5.23
2022-12-29T12:20:37.126Z,3.70
2022-12-29T12:23:09.604Z,4.63
2022-12-29T12:25:40.089Z,3.57
2022-12-29T12:28:17.054Z,3.97
2022-12-29T12:30:48.467Z,7.97
2022-12-29T12:33:19.452Z,2.57
2022-12-29T12:35:52.123Z,5.07
2022-12-29T12:38:32.025Z,8.13
2022-12-29T12:41:01.667Z,3.33
2022-12-29T12:43:36.186Z,4.57
2022-12-29T12:46:21.957Z,3.67
2022-12-29T12:48:54.605Z,3.03
2022-12-29T12:51:33.333Z,5.97
2022-12-29T12:54:00.005Z,5.43
2022-12-29T12:56:48.897Z,6.53
2022-12-29T12:59:33.721Z,4.50
2022-12-29T13:02:12.449Z,5.53
2022-12-29T13:05:04.439Z,4.90
2022-12-29T13:07:37.075Z,4.40
2022-12-29T13:10:03.635Z,4.20
2022-12-29T13:12:38.015Z,4.20
2022-12-29T13:15:07.651Z,3.50
2022-12-29T13:17:40.391Z,6.50
2022-12-29T13:20:16.948Z,4.13
2022-12-29T13:22:55.390Z,5.40
2022-12-29T13:25:24.942Z,2.87
2022-12-29T13:27:57.194Z,5.53
2022-12-29T13:30:27.370Z,2.33
2022-12-29T13:33:06.135Z,2.57
2022-12-29T13:35:44.707Z,6.93
2022-12-29T13:38:11.372Z,2.10
2022-12-29T13:40:41.303Z,3.13
2022-12-29T13:43:08.221Z,1.63
2022-12-29T13:45:35.435Z,2.57
2022-12-29T13:48:06.066Z,4.87
2022-12-29T13:50:35.419Z,2.83
2022-12-29T13:53:20.650Z,5.10
2022-12-29T13:55:53.241Z,10.47
2022-12-29T13:58:25.950Z,5.87
2022-12-29T14:00:55.478Z,3.13
2022-12-29T14:03:28.211Z,5.07
2022-12-29T14:06:14.734Z,7.57
2022-12-29T14:08:41.629Z,1.60
2022-12-29T14:11:12.468Z,3.80
2022-12-29T14:13:40.853Z,5.10
2022-12-29T14:16:08.104Z,3.63
2022-12-29T14:18:41.737Z,3.97
2022-12-29T14:21:08.309Z,4.83
2022-12-29T14:23:45.580Z,3.23
2022-12-29T14:26:34.465Z,6.40
2022-12-29T14:29:17.697Z,3.53
2022-12-29T14:31:44.726Z,5.83
2022-12-29T14:34:11.362Z,5.40
2022-12-29T14:36:40.204Z,3.57
2022-12-29T14:39:26.739Z,4.87
2022-12-29T14:42:00.526Z,4.67
2022-12-29T14:44:27.255Z,3.20
2022-12-29T14:46:59.961Z,4.33
2022-12-29T14:49:32.170Z,3.67
2022-12-29T14:52:14.008Z,4.07
2022-12-29T14:54:50.384Z,5.73
2022-12-29T14:57:22.249Z,7.93
2022-12-29T14:59:49.320Z,5.07
2022-12-29T15:02:18.205Z,6.80
2022-12-29T15:04:45.135Z,4.30
2022-12-29T15:07:12.310Z,4.80
2022-12-29T15:09:44.756Z,7.37
2022-12-29T15:12:20.493Z,9.37
2022-12-29T15:14:57.612Z,5.93
2022-12-29T15:17:27.605Z,5.97
2022-12-29T15:19:54.933Z,5.40
2022-12-29T15:22:21.923Z,6.40
2022-12-29T15:24:50.790Z,6.13
2022-12-29T15:27:19.771Z,4.17
2022-12-29T15:29:46.956Z,6.50
2022-12-29T15:32:16.481Z,4.63
2022-12-29T15:34:47.496Z,12.73
2022-12-29T15:37:21.506Z,5.03
2022-12-29T15:39:49.121Z,8.50
2022-12-29T15:42:30.852Z,5.40
2022-12-29T15:45:09.336Z,3.73
2022-12-29T15:47:37.518Z,7.47
2022-12-29T15:50:09.727Z,6.27
2022-12-29T15:52:40.331Z,6.90
2022-12-29T15:55:07.543Z,8.40
2022-12-29T15:57:42.629Z,5.03
2022-12-29T16:00:27.895Z,7.87
2022-12-29T16:02:55.619Z,5.23
2022-12-29T16:05:22.506Z,7.43
2022-12-29T16:07:53.003Z,6.33
2022-12-29T16:10:38.992Z,5.60
2022-12-29T16:13:07.556Z,7.33
2022-12-29T16:15:34.348Z,11.77
2022-12-29T16:18:01.104Z,8.37
2022-12-29T16:20:39.190Z,7.80
2022-12-29T16:23:05.988Z,5.63
2022-12-29T16:25:35.772Z,8.07
2022-12-29T16:28:03.311Z,5.40
2022-12-29T16:30:34.124Z,3.77
2022-12-29T16:33:02.371Z,6.97
2022-12-29T16:35:31.112Z,4.20
2022-12-29T16:38:18.070Z,8.50
2022-12-29T16:40:53.897Z,7.40
2022-12-29T16:43:31.567Z,8.00
2022-12-29T16:46:01.179Z,10.43
2022-12-29T16:48:33.908Z,9.93
2022-12-29T16:51:05.642Z,9.27
2022-12-29T16:53:39.495Z,12.10
2022-12-29T16:56:09.538Z,9.13
2022-12-29T16:58:36.804Z,8.00
2022-12-29T17:01:04.985Z,10.00
2022-12-29T17:03:38.991Z,15.07
2022-12-29T17:06:05.727Z,8.37
2022-12-29T17:08:40.271Z,11.50
2022-12-29T17:11:33.663Z,8.67
2022-12-29T17:14:00.420Z,9.87
2022-12-29T17:16:27.095Z,10.07
2022-12-29T17:18:53.839Z,8.23
2022-12-29T17:21:20.504Z,11.50
2022-12-29T17:23:47.106Z,11.20
2022-12-29T17:26:13.901Z,8.93
2022-12-29T17:28:40.630Z,13.43
2022-12-29T17:31:07.771Z,10.50
2022-12-29T17:33:36.915Z,10.67
2022-12-29T17:36:04.047Z,9.00
2022-12-29T17:38:31.954Z,12.13
2022-12-29T17:40:59.270Z,8.23
2022-12-29T17:43:29.053Z,10.43
2022-12-29T17:46:01.315Z,12.20
2022-12-29T17:48:28.054Z,9.03
2022-12-29T17:50:54.890Z,10.97
2022-12-29T17:53:23.749Z,9.63
2022-12-29T17:55:50.545Z,12.90
2022-12-29T17:58:21.997Z,11.63
2022-12-29T18:00:49.638Z,9.00
2022-12-29T18:03:19.174Z,10.33
2022-12-29T18:05:46.856Z,14.60
2022-12-29T18:08:13.759Z,10.83
2022-12-29T18:10:41.480Z,11.23
2022-12-29T18:13:15.774Z,8.97
2022-12-29T18:15:42.423Z,15.17
2022-12-29T18:18:13.546Z,11.07
2022-12-29T18:20:41.284Z,8.40
2022-12-29T18:23:14.496Z,9.97
2022-12-29T18:25:44.042Z,6.80
2022-12-29T18:28:10.797Z,9.87
2022-12-29T18:30:37.812Z,8.93
2022-12-29T18:33:04.416Z,8.37
2022-12-29T18:35:46.640Z,10.67
2022-12-29T18:38:13.310Z,10.07
2022-12-29T18:40:40.037Z,7.53
2022-12-29T18:43:06.711Z,5.70
2022-12-29T18:45:33.819Z,15.83
2022-12-29T18:48:00.685Z,7.97
2022-12-29T18:50:27.317Z,7.17
2022-12-29T18:52:55.269Z,8.33
2022-12-29T18:55:27.997Z,11.10
2022-12-29T18:57:55.037Z,6.57
2022-12-29T19:00:22.084Z,39.27
2022-12-29T19:02:49.622Z,6.97
2022-12-29T19:05:19.175Z,5.37
2022-12-29T19:07:46.017Z,10.93
2022-12-29T19:10:13.054Z,10.87
2022-12-29T19:12:39.771Z,7.47
2022-12-29T19:15:07.462Z,7.20
2022-12-29T19:17:34.277Z,9.33
2022-12-29T19:20:04.199Z,9.17
2022-12-29T19:22:31.186Z,10.47
2022-12-29T19:25:00.225Z,6.73
2022-12-29T19:27:27.003Z,8.37
2022-12-29T19:29:53.632Z,9.07
2022-12-29T19:32:20.639Z,7.67
2022-12-29T19:34:48.923Z,6.47
2022-12-29T19:37:15.690Z,8.13
2022-12-29T19:39:42.573Z,5.83
2022-12-29T19:42:09.198Z,7.13
2022-12-29T19:44:35.910Z,9.80
2022-12-29T19:47:02.795Z,8.83
2022-12-29T19:49:29.803Z,8.10
2022-12-29T19:51:56.420Z,10.80
2022-12-29T19:54:23.114Z,7.30
2022-12-29T19:56:49.939Z,11.43
2022-12-29T19:59:16.641Z,8.97
2022-12-29T20:01:43.414Z,7.17
2022-12-29T20:04:10.465Z,10.03
2022-12-29T20:06:37.182Z,11.73
2022-12-29T20:09:03.815Z,14.23
2022-12-29T20:11:30.523Z,9.63
2022-12-29T20:13:57.158Z,8.70
2022-12-29T20:16:24.996Z,8.93
2022-12-29T20:18:51.760Z,10.07
2022-12-29T20:21:20.171Z,10.07
2022-12-29T20:23:47.459Z,14.50
2022-12-29T20:26:32.246Z,8.33
2022-12-29T20:29:00.189Z,10.50
2022-12-29T20:31:28.424Z,6.90
2022-12-29T20:33:55.708Z,6.97
2022-12-29T20:36:30.018Z,7.23
2022-12-29T20:38:57.831Z,7.97
2022-12-29T20:41:24.617Z,11.63
2022-12-29T20:43:53.298Z,7.60
2022-12-29T20:46:23.221Z,12.30
2022-12-29T20:48:51.968Z,9.93
2022-12-29T20:51:19.562Z,7.77
2022-12-29T20:53:46.599Z,3.77
2022-12-29T20:56:14.645Z,7.27
2022-12-29T20:59:17.036Z,8.10
2022-12-29T21:01:28.075Z,10.53
2022-12-29T21:03:55.904Z,7.63
2022-12-29T21:06:22.534Z,10.13
2022-12-29T21:08:51.053Z,5.83
2022-12-29T21:11:18.278Z,9.37
2022-12-29T21:13:45.806Z,7.80
2022-12-29T21:16:13.183Z,7.53
2022-12-29T21:18:40.098Z,9.07
2022-12-29T21:21:16.109Z,8.00
2022-12-29T21:23:42.816Z,13.30
2022-12-29T21:26:09.927Z,8.13
2022-12-29T21:28:40.646Z,10.80
2022-12-29T21:31:08.611Z,10.10
2022-12-29T21:33:37.453Z,13.20
2022-12-29T21:36:04.882Z,18.10
2022-12-29T21:38:31.917Z,19.40
2022-12-29T21:41:08.391Z,30.37
2022-12-29T21:43:35.749Z,29.57
2022-12-29T21:46:02.752Z,53.13
2022-12-29T21:48:30.833Z,25.43
2022-12-29T21:51:16.884Z,29.10
2022-12-29T21:53:45.570Z,15.03
2022-12-29T21:56:16.617Z,12.57
2022-12-29T21:59:03.013Z,17.37
2022-12-29T22:01:49.617Z,26.60
2022-12-29T22:04:35.817Z,14.60
2022-12-29T22:07:21.765Z,28.40
2022-12-29T22:10:07.424Z,19.40
2022-12-29T22:12:52.716Z,22.50
2022-12-29T22:15:19.565Z,14.20
2022-12-29T22:17:48.710Z,13.23
2022-12-29T22:20:16.558Z,12.17
2022-12-29T22:22:43.280Z,7.63
2022-12-29T22:25:10.729Z,8.57
2022-12-29T22:27:37.425Z,7.93
2022-12-29T22:30:04.501Z,6.73
2022-12-29T22:32:31.675Z,11.13
2022-12-29T22:34:58.433Z,11.23
2022-12-29T22:37:25.052Z,7.77
2022-12-29T22:39:51.786Z,11.50
2022-12-29T22:42:18.512Z,9.90
2022-12-29T22:44:45.435Z,8.70
2022-12-29T22:47:12.117Z,7.83
2022-12-29T22:49:38.820Z,9.87
2022-12-29T22:52:05.652Z,12.30
2022-12-29T22:54:32.387Z,7.20
2022-12-29T22:56:58.995Z,8.53
2022-12-29T22:59:25.716Z,9.43
2022-12-29T23:01:52.498Z,8.20
2022-12-29T23:05:01.523Z,10.23
2022-12-29T23:07:06.477Z,9.23
2022-12-29T23:09:33.215Z,11.53
2022-12-29T23:12:00.007Z,16.17
2022-12-29T23:14:26.641Z,10.03
2022-12-29T23:16:53.336Z,11.57
2022-12-29T23:19:20.072Z,18.77
2022-12-29T23:21:46.731Z,8.37
2022-12-29T23:24:13.807Z,8.53
2022-12-29T23:26:42.433Z,10.97
2022-12-29T23:29:11.020Z,11.30
2022-12-29T23:31:38.426Z,7.57
2022-12-29T23:34:06.092Z,8.73
2022-12-29T23:36:33.055Z,13.53
2022-12-29T23:39:00.239Z,7.27
2022-12-29T23:41:27.215Z,10.20
2022-12-29T23:43:54.130Z,14.03
2022-12-29T23:46:22.041Z,9.47
2022-12-29T23:48:48.811Z,12.50
2022-12-29T23:51:15.576Z,10.00
2022-12-29T23:53:43.329Z,9.67
2022-12-29T23:56:12.582Z,10.83
2022-12-29T23:58:39.379Z,8.00
